sensor_id;sensor_type;location;lat;lon;timestamp;P1;durP1;ratioP1;P2;durP2;ratioP2
56381;SDS011;50261;51.150;4.470;2023-06-26T00:02:10;6.25;;;3.20;;
56381;SDS011;50261;51.150;4.470;2023-06-26T00:04:35;3.58;;;2.63;;
56381;SDS011;50261;51.150;4.470;2023-06-26T00:07:03;5.85;;;2.78;;
56381;SDS011;50261;51.150;4.470;2023-06-26T00:09:29;5.13;;;2.50;;
56381;SDS011;50261;51.150;4.470;2023-06-26T00:11:55;3.08;;;2.45;;
56381;SDS011;50261;51.150;4.470;2023-06-26T00:14:20;4.05;;;2.50;;
56381;SDS011;50261;51.150;4.470;2023-06-26T00:16:46;5.85;;;2.78;;
56381;SDS011;50261;51.150;4.470;2023-06-26T00:19:15;8.10;;;2.65;;
56381;SDS011;50261;51.150;4.470;2023-06-26T00:21:41;4.93;;;2.35;;
56381;SDS011;50261;51.150;4.470;2023-06-26T00:24:12;3.47;;;2.47;;
56381;SDS011;50261;51.150;4.470;2023-06-26T00:26:38;3.65;;;2.40;;
56381;SDS011;50261;51.150;4.470;2023-06-26T00:29:03;3.88;;;2.22;;
56381;SDS011;50261;51.150;4.470;2023-06-26T00:31:30;3.97;;;2.72;;
56381;SDS011;50261;51.150;4.470;2023-06-26T00:33:55;10.63;;;3.00;;
56381;SDS011;50261;51.150;4.470;2023-06-26T00:36:23;3.92;;;2.60;;
56381;SDS011;50261;51.150;4.470;2023-06-26T00:38:51;6.18;;;2.83;;
56381;SDS011;50261;51.150;4.470;2023-06-26T00:41:17;3.95;;;2.85;;
56381;SDS011;50261;51.150;4.470;2023-06-26T00:43:43;5.53;;;2.65;;
56381;SDS011;50261;51.150;4.470;2023-06-26T00:46:10;4.28;;;2.70;;
56381;SDS011;50261;51.150;4.470;2023-06-26T00:48:37;6.63;;;3.42;;
56381;SDS011;50261;51.150;4.470;2023-06-26T00:51:05;4.80;;;3.40;;
56381;SDS011;50261;51.150;4.470;2023-06-26T00:53:31;8.63;;;2.75;;
56381;SDS011;50261;51.150;4.470;2023-06-26T00:55:57;4.50;;;3.10;;
56381;SDS011;50261;51.150;4.470;2023-06-26T00:58:24;5.35;;;2.90;;
56381;SDS011;50261;51.150;4.470;2023-06-26T01:00:52;4.75;;;2.88;;
56381;SDS011;50261;51.150;4.470;2023-06-26T01:03:24;5.03;;;3.00;;
56381;SDS011;50261;51.150;4.470;2023-06-26T01:05:54;7.15;;;3.28;;
56381;SDS011;50261;51.150;4.470;2023-06-26T01:08:22;3.42;;;2.65;;
56381;SDS011;50261;51.150;4.470;2023-06-26T01:10:47;7.03;;;3.00;;
56381;SDS011;50261;51.150;4.470;2023-06-26T01:13:14;6.20;;;3.00;;
56381;SDS011;50261;51.150;4.470;2023-06-26T01:15:40;4.60;;;2.90;;
56381;SDS011;50261;51.150;4.470;2023-06-26T01:18:06;4.88;;;2.92;;
56381;SDS011;50261;51.150;4.470;2023-06-26T01:20:35;4.18;;;2.88;;
56381;SDS011;50261;51.150;4.470;2023-06-26T01:25:38;6.25;;;2.60;;
56381;SDS011;50261;51.150;4.470;2023-06-26T01:28:08;5.22;;;2.58;;
56381;SDS011;50261;51.150;4.470;2023-06-26T01:30:35;4.43;;;2.90;;
56381;SDS011;50261;51.150;4.470;2023-06-26T01:33:03;5.35;;;3.13;;
56381;SDS011;50261;51.150;4.470;2023-06-26T01:35:29;5.85;;;2.80;;
56381;SDS011;50261;51.150;4.470;2023-06-26T01:38:11;7.40;;;3.60;;
56381;SDS011;50261;51.150;4.470;2023-06-26T01:40:36;4.93;;;2.85;;
56381;SDS011;50261;51.150;4.470;2023-06-26T01:43:02;6.40;;;2.80;;
56381;SDS011;50261;51.150;4.470;2023-06-26T01:45:28;7.68;;;3.03;;
56381;SDS011;50261;51.150;4.470;2023-06-26T01:47:55;4.72;;;2.88;;
56381;SDS011;50261;51.150;4.470;2023-06-26T01:50:22;8.02;;;3.17;;
56381;SDS011;50261;51.150;4.470;2023-06-26T01:53:06;7.68;;;3.17;;
56381;SDS011;50261;51.150;4.470;2023-06-26T01:58:04;5.57;;;2.95;;
56381;SDS011;50261;51.150;4.470;2023-06-26T02:00:31;7.43;;;3.03;;
56381;SDS011;50261;51.150;4.470;2023-06-26T02:02:57;8.43;;;3.25;;
56381;SDS011;50261;51.150;4.470;2023-06-26T02:05:23;6.45;;;3.70;;
56381;SDS011;50261;51.150;4.470;2023-06-26T02:07:49;9.43;;;3.45;;
56381;SDS011;50261;51.150;4.470;2023-06-26T02:10:15;6.07;;;3.15;;
56381;SDS011;50261;51.150;4.470;2023-06-26T02:12:43;9.85;;;3.28;;
56381;SDS011;50261;51.150;4.470;2023-06-26T02:15:11;7.40;;;2.88;;
56381;SDS011;50261;51.150;4.470;2023-06-26T02:17:38;6.53;;;3.08;;
56381;SDS011;50261;51.150;4.470;2023-06-26T02:20:04;5.97;;;3.08;;
56381;SDS011;50261;51.150;4.470;2023-06-26T02:22:31;6.78;;;3.40;;
56381;SDS011;50261;51.150;4.470;2023-06-26T02:24:57;8.70;;;2.92;;
56381;SDS011;50261;51.150;4.470;2023-06-26T02:27:22;7.03;;;3.72;;
56381;SDS011;50261;51.150;4.470;2023-06-26T02:29:48;10.93;;;3.58;;
56381;SDS011;50261;51.150;4.470;2023-06-26T02:32:14;9.65;;;3.42;;
56381;SDS011;50261;51.150;4.470;2023-06-26T02:34:40;9.05;;;3.45;;
56381;SDS011;50261;51.150;4.470;2023-06-26T02:37:06;6.65;;;3.22;;
56381;SDS011;50261;51.150;4.470;2023-06-26T02:39:33;8.13;;;3.53;;
56381;SDS011;50261;51.150;4.470;2023-06-26T02:42:00;8.35;;;3.30;;
56381;SDS011;50261;51.150;4.470;2023-06-26T02:44:25;7.85;;;3.40;;
56381;SDS011;50261;51.150;4.470;2023-06-26T02:46:51;7.90;;;3.97;;
56381;SDS011;50261;51.150;4.470;2023-06-26T02:49:17;14.25;;;3.80;;
56381;SDS011;50261;51.150;4.470;2023-06-26T02:51:44;10.70;;;3.83;;
56381;SDS011;50261;51.150;4.470;2023-06-26T02:54:21;10.02;;;3.20;;
56381;SDS011;50261;51.150;4.470;2023-06-26T02:56:51;8.98;;;3.38;;
56381;SDS011;50261;51.150;4.470;2023-06-26T02:59:22;9.25;;;3.25;;
56381;SDS011;50261;51.150;4.470;2023-06-26T03:01:48;11.93;;;3.72;;
56381;SDS011;50261;51.150;4.470;2023-06-26T03:04:14;10.75;;;3.53;;
56381;SDS011;50261;51.150;4.470;2023-06-26T03:06:41;5.90;;;2.90;;
56381;SDS011;50261;51.150;4.470;2023-06-26T03:09:07;9.50;;;3.33;;
56381;SDS011;50261;51.150;4.470;2023-06-26T03:11:32;11.70;;;3.80;;
56381;SDS011;50261;51.150;4.470;2023-06-26T03:13:58;7.43;;;3.50;;
56381;SDS011;50261;51.150;4.470;2023-06-26T03:16:24;11.27;;;3.65;;
56381;SDS011;50261;51.150;4.470;2023-06-26T03:18:50;9.35;;;3.25;;
56381;SDS011;50261;51.150;4.470;2023-06-26T03:21:15;11.75;;;3.63;;
56381;SDS011;50261;51.150;4.470;2023-06-26T03:23:41;8.98;;;3.88;;
56381;SDS011;50261;51.150;4.470;2023-06-26T03:26:07;8.88;;;3.63;;
56381;SDS011;50261;51.150;4.470;2023-06-26T03:28:35;9.75;;;4.05;;
56381;SDS011;50261;51.150;4.470;2023-06-26T03:31:01;8.45;;;3.20;;
56381;SDS011;50261;51.150;4.470;2023-06-26T03:33:27;12.73;;;4.03;;
56381;SDS011;50261;51.150;4.470;2023-06-26T03:35:54;9.27;;;3.42;;
56381;SDS011;50261;51.150;4.470;2023-06-26T03:38:19;9.07;;;3.53;;
56381;SDS011;50261;51.150;4.470;2023-06-26T03:40:46;11.65;;;3.83;;
56381;SDS011;50261;51.150;4.470;2023-06-26T03:43:11;8.60;;;3.42;;
56381;SDS011;50261;51.150;4.470;2023-06-26T03:45:57;10.27;;;3.78;;
56381;SDS011;50261;51.150;4.470;2023-06-26T03:48:25;10.15;;;3.65;;
56381;SDS011;50261;51.150;4.470;2023-06-26T03:50:50;10.18;;;3.78;;
56381;SDS011;50261;51.150;4.470;2023-06-26T03:53:16;11.82;;;3.97;;
56381;SDS011;50261;51.150;4.470;2023-06-26T03:55:42;10.55;;;3.35;;
56381;SDS011;50261;51.150;4.470;2023-06-26T03:58:08;13.40;;;3.78;;
56381;SDS011;50261;51.150;4.470;2023-06-26T04:00:34;10.40;;;3.55;;
56381;SDS011;50261;51.150;4.470;2023-06-26T04:03:00;13.75;;;4.05;;
56381;SDS011;50261;51.150;4.470;2023-06-26T04:05:26;10.20;;;3.45;;
56381;SDS011;50261;51.150;4.470;2023-06-26T04:07:52;13.85;;;4.25;;
56381;SDS011;50261;51.150;4.470;2023-06-26T04:10:18;13.52;;;3.92;;
56381;SDS011;50261;51.150;4.470;2023-06-26T04:12:44;11.38;;;4.00;;
56381;SDS011;50261;51.150;4.470;2023-06-26T04:15:09;14.95;;;3.97;;
56381;SDS011;50261;51.150;4.470;2023-06-26T04:17:35;17.52;;;4.30;;
56381;SDS011;50261;51.150;4.470;2023-06-26T04:20:01;10.38;;;3.60;;
56381;SDS011;50261;51.150;4.470;2023-06-26T04:22:30;16.95;;;3.90;;
56381;SDS011;50261;51.150;4.470;2023-06-26T04:24:55;15.45;;;3.83;;
56381;SDS011;50261;51.150;4.470;2023-06-26T04:27:21;13.02;;;4.15;;
56381;SDS011;50261;51.150;4.470;2023-06-26T04:29:47;12.02;;;3.65;;
56381;SDS011;50261;51.150;4.470;2023-06-26T04:32:12;11.05;;;3.53;;
56381;SDS011;50261;51.150;4.470;2023-06-26T04:34:38;13.32;;;3.13;;
56381;SDS011;50261;51.150;4.470;2023-06-26T04:37:06;13.20;;;3.80;;
56381;SDS011;50261;51.150;4.470;2023-06-26T04:39:32;8.40;;;3.67;;
56381;SDS011;50261;51.150;4.470;2023-06-26T04:41:58;13.25;;;4.20;;
56381;SDS011;50261;51.150;4.470;2023-06-26T04:44:24;14.07;;;4.47;;
56381;SDS011;50261;51.150;4.470;2023-06-26T04:46:49;11.48;;;3.38;;
56381;SDS011;50261;51.150;4.470;2023-06-26T04:49:17;16.73;;;3.53;;
56381;SDS011;50261;51.150;4.470;2023-06-26T04:51:43;15.98;;;3.92;;
56381;SDS011;50261;51.150;4.470;2023-06-26T04:54:10;10.73;;;3.08;;
56381;SDS011;50261;51.150;4.470;2023-06-26T04:56:35;11.30;;;3.13;;
56381;SDS011;50261;51.150;4.470;2023-06-26T04:59:01;14.43;;;3.85;;
56381;SDS011;50261;51.150;4.470;2023-06-26T05:01:27;10.55;;;3.40;;
56381;SDS011;50261;51.150;4.470;2023-06-26T05:03:55;15.43;;;3.38;;
56381;SDS011;50261;51.150;4.470;2023-06-26T05:06:22;12.38;;;3.65;;
56381;SDS011;50261;51.150;4.470;2023-06-26T05:08:47;11.68;;;3.20;;
56381;SDS011;50261;51.150;4.470;2023-06-26T05:11:13;16.23;;;3.15;;
56381;SDS011;50261;51.150;4.470;2023-06-26T05:13:39;11.65;;;3.28;;
56381;SDS011;50261;51.150;4.470;2023-06-26T05:16:05;8.65;;;3.15;;
56381;SDS011;50261;51.150;4.470;2023-06-26T05:18:31;10.48;;;3.17;;
56381;SDS011;50261;51.150;4.470;2023-06-26T05:20:56;11.50;;;3.30;;
56381;SDS011;50261;51.150;4.470;2023-06-26T05:23:22;13.68;;;3.17;;
56381;SDS011;50261;51.150;4.470;2023-06-26T05:25:51;14.77;;;3.65;;
56381;SDS011;50261;51.150;4.470;2023-06-26T05:28:16;10.27;;;3.38;;
56381;SDS011;50261;51.150;4.470;2023-06-26T05:30:42;14.10;;;3.60;;
56381;SDS011;50261;51.150;4.470;2023-06-26T05:33:09;11.48;;;3.17;;
56381;SDS011;50261;51.150;4.470;2023-06-26T05:35:36;16.80;;;3.03;;
56381;SDS011;50261;51.150;4.470;2023-06-26T05:38:01;10.45;;;3.22;;
56381;SDS011;50261;51.150;4.470;2023-06-26T05:40:27;10.35;;;3.20;;
56381;SDS011;50261;51.150;4.470;2023-06-26T05:42:53;15.68;;;3.50;;
56381;SDS011;50261;51.150;4.470;2023-06-26T05:45:19;11.45;;;2.67;;
56381;SDS011;50261;51.150;4.470;2023-06-26T05:47:44;9.90;;;2.83;;
56381;SDS011;50261;51.150;4.470;2023-06-26T05:50:11;14.70;;;3.40;;
56381;SDS011;50261;51.150;4.470;2023-06-26T05:52:37;17.50;;;4.03;;
56381;SDS011;50261;51.150;4.470;2023-06-26T05:55:04;12.65;;;2.67;;
56381;SDS011;50261;51.150;4.470;2023-06-26T05:57:30;10.05;;;2.72;;
56381;SDS011;50261;51.150;4.470;2023-06-26T05:59:56;10.27;;;2.70;;
56381;SDS011;50261;51.150;4.470;2023-06-26T06:02:22;9.77;;;2.60;;
56381;SDS011;50261;51.150;4.470;2023-06-26T06:04:47;5.68;;;1.92;;
56381;SDS011;50261;51.150;4.470;2023-06-26T06:07:13;10.65;;;2.78;;
56381;SDS011;50261;51.150;4.470;2023-06-26T06:09:39;9.98;;;2.40;;
56381;SDS011;50261;51.150;4.470;2023-06-26T06:12:05;12.93;;;2.25;;
56381;SDS011;50261;51.150;4.470;2023-06-26T06:14:31;9.98;;;2.40;;
56381;SDS011;50261;51.150;4.470;2023-06-26T06:16:57;11.45;;;2.85;;
56381;SDS011;50261;51.150;4.470;2023-06-26T06:19:23;10.82;;;2.47;;
56381;SDS011;50261;51.150;4.470;2023-06-26T06:21:48;10.38;;;2.15;;
56381;SDS011;50261;51.150;4.470;2023-06-26T06:24:14;6.75;;;1.92;;
56381;SDS011;50261;51.150;4.470;2023-06-26T06:26:40;7.18;;;2.30;;
56381;SDS011;50261;51.150;4.470;2023-06-26T06:29:05;12.55;;;2.97;;
56381;SDS011;50261;51.150;4.470;2023-06-26T06:31:31;7.68;;;1.90;;
56381;SDS011;50261;51.150;4.470;2023-06-26T06:33:57;8.82;;;1.77;;
56381;SDS011;50261;51.150;4.470;2023-06-26T06:36:23;9.70;;;2.03;;
56381;SDS011;50261;51.150;4.470;2023-06-26T06:38:48;6.40;;;1.95;;
56381;SDS011;50261;51.150;4.470;2023-06-26T06:41:14;12.77;;;1.88;;
56381;SDS011;50261;51.150;4.470;2023-06-26T06:43:40;7.68;;;1.40;;
56381;SDS011;50261;51.150;4.470;2023-06-26T06:46:06;10.20;;;1.85;;
56381;SDS011;50261;51.150;4.470;2023-06-26T06:48:32;7.95;;;1.65;;
56381;SDS011;50261;51.150;4.470;2023-06-26T06:50:57;6.93;;;1.83;;
56381;SDS011;50261;51.150;4.470;2023-06-26T06:53:23;6.53;;;1.65;;
56381;SDS011;50261;51.150;4.470;2023-06-26T06:55:49;9.95;;;2.03;;
56381;SDS011;50261;51.150;4.470;2023-06-26T06:58:15;4.57;;;1.00;;
56381;SDS011;50261;51.150;4.470;2023-06-26T07:00:49;7.47;;;1.48;;
56381;SDS011;50261;51.150;4.470;2023-06-26T07:03:17;4.43;;;1.15;;
56381;SDS011;50261;51.150;4.470;2023-06-26T07:05:42;7.22;;;1.30;;
56381;SDS011;50261;51.150;4.470;2023-06-26T07:08:08;4.13;;;0.93;;
56381;SDS011;50261;51.150;4.470;2023-06-26T07:10:34;6.43;;;1.38;;
56381;SDS011;50261;51.150;4.470;2023-06-26T07:13:00;4.97;;;1.23;;
56381;SDS011;50261;51.150;4.470;2023-06-26T07:15:25;5.55;;;1.50;;
56381;SDS011;50261;51.150;4.470;2023-06-26T07:17:52;5.22;;;1.23;;
56381;SDS011;50261;51.150;4.470;2023-06-26T07:20:17;12.73;;;2.03;;
56381;SDS011;50261;51.150;4.470;2023-06-26T07:22:43;3.13;;;1.38;;
56381;SDS011;50261;51.150;4.470;2023-06-26T07:25:12;5.82;;;0.77;;
56381;SDS011;50261;51.150;4.470;2023-06-26T07:27:38;6.82;;;1.40;;
56381;SDS011;50261;51.150;4.470;2023-06-26T07:30:04;7.82;;;1.65;;
56381;SDS011;50261;51.150;4.470;2023-06-26T07:32:29;7.28;;;1.20;;
56381;SDS011;50261;51.150;4.470;2023-06-26T07:34:55;5.30;;;1.08;;
56381;SDS011;50261;51.150;4.470;2023-06-26T07:37:20;3.70;;;0.98;;
56381;SDS011;50261;51.150;4.470;2023-06-26T07:39:45;7.05;;;1.13;;
56381;SDS011;50261;51.150;4.470;2023-06-26T07:42:11;2.88;;;0.70;;
56381;SDS011;50261;51.150;4.470;2023-06-26T07:44:36;5.18;;;1.00;;
56381;SDS011;50261;51.150;4.470;2023-06-26T07:47:02;5.55;;;1.02;;
56381;SDS011;50261;51.150;4.470;2023-06-26T07:49:27;5.70;;;1.50;;
56381;SDS011;50261;51.150;4.470;2023-06-26T07:51:53;23.52;;;2.97;;
56381;SDS011;50261;51.150;4.470;2023-06-26T07:54:18;4.95;;;0.90;;
56381;SDS011;50261;51.150;4.470;2023-06-26T07:56:57;9.48;;;0.80;;
56381;SDS011;50261;51.150;4.470;2023-06-26T07:59:23;6.70;;;0.90;;
56381;SDS011;50261;51.150;4.470;2023-06-26T08:01:52;4.95;;;1.48;;
56381;SDS011;50261;51.150;4.470;2023-06-26T08:04:19;10.68;;;1.02;;
56381;SDS011;50261;51.150;4.470;2023-06-26T08:06:45;4.40;;;0.90;;
56381;SDS011;50261;51.150;4.470;2023-06-26T08:09:11;3.90;;;0.85;;
56381;SDS011;50261;51.150;4.470;2023-06-26T08:11:38;2.63;;;0.70;;
56381;SDS011;50261;51.150;4.470;2023-06-26T08:14:03;4.85;;;1.10;;
56381;SDS011;50261;51.150;4.470;2023-06-26T08:16:28;2.92;;;0.80;;
56381;SDS011;50261;51.150;4.470;2023-06-26T08:18:54;3.85;;;0.77;;
56381;SDS011;50261;51.150;4.470;2023-06-26T08:21:19;5.63;;;0.98;;
56381;SDS011;50261;51.150;4.470;2023-06-26T08:23:44;3.58;;;0.73;;
56381;SDS011;50261;51.150;4.470;2023-06-26T08:26:10;2.75;;;0.82;;
56381;SDS011;50261;51.150;4.470;2023-06-26T08:28:35;4.53;;;1.10;;
56381;SDS011;50261;51.150;4.470;2023-06-26T08:31:01;8.18;;;1.08;;
56381;SDS011;50261;51.150;4.470;2023-06-26T08:33:26;3.95;;;0.70;;
56381;SDS011;50261;51.150;4.470;2023-06-26T08:35:51;5.35;;;0.55;;
56381;SDS011;50261;51.150;4.470;2023-06-26T08:38:17;4.45;;;1.10;;
56381;SDS011;50261;51.150;4.470;2023-06-26T08:40:42;17.70;;;1.98;;
56381;SDS011;50261;51.150;4.470;2023-06-26T08:43:08;3.67;;;1.20;;
56381;SDS011;50261;51.150;4.470;2023-06-26T08:45:33;5.10;;;1.25;;
56381;SDS011;50261;51.150;4.470;2023-06-26T08:47:59;6.93;;;1.70;;
56381;SDS011;50261;51.150;4.470;2023-06-26T08:50:25;2.70;;;0.88;;
56381;SDS011;50261;51.150;4.470;2023-06-26T08:55:24;3.58;;;0.82;;
56381;SDS011;50261;51.150;4.470;2023-06-26T08:57:51;4.80;;;0.98;;
56381;SDS011;50261;51.150;4.470;2023-06-26T09:00:17;1.70;;;1.17;;
56381;SDS011;50261;51.150;4.470;2023-06-26T09:02:42;7.63;;;1.00;;
56381;SDS011;50261;51.150;4.470;2023-06-26T09:05:08;4.25;;;1.10;;
56381;SDS011;50261;51.150;4.470;2023-06-26T09:07:34;6.85;;;1.27;;
56381;SDS011;50261;51.150;4.470;2023-06-26T09:09:59;4.57;;;1.08;;
56381;SDS011;50261;51.150;4.470;2023-06-26T09:12:26;6.63;;;0.82;;
56381;SDS011;50261;51.150;4.470;2023-06-26T09:14:52;6.53;;;1.00;;
56381;SDS011;50261;51.150;4.470;2023-06-26T09:17:21;3.22;;;0.77;;
56381;SDS011;50261;51.150;4.470;2023-06-26T09:19:49;2.28;;;0.80;;
56381;SDS011;50261;51.150;4.470;2023-06-26T09:22:14;5.30;;;1.08;;
56381;SDS011;50261;51.150;4.470;2023-06-26T09:24:43;5.03;;;1.10;;
56381;SDS011;50261;51.150;4.470;2023-06-26T09:27:09;6.57;;;1.00;;
56381;SDS011;50261;51.150;4.470;2023-06-26T09:29:34;7.47;;;1.20;;
56381;SDS011;50261;51.150;4.470;2023-06-26T09:32:00;4.13;;;0.90;;
56381;SDS011;50261;51.150;4.470;2023-06-26T09:34:32;5.05;;;1.77;;
56381;SDS011;50261;51.150;4.470;2023-06-26T09:36:57;3.53;;;1.10;;
56381;SDS011;50261;51.150;4.470;2023-06-26T09:39:23;7.32;;;1.05;;
56381;SDS011;50261;51.150;4.470;2023-06-26T09:41:48;3.65;;;1.27;;
56381;SDS011;50261;51.150;4.470;2023-06-26T09:44:14;3.70;;;0.82;;
56381;SDS011;50261;51.150;4.470;2023-06-26T09:46:40;5.18;;;1.02;;
56381;SDS011;50261;51.150;4.470;2023-06-26T09:49:09;31.35;;;2.60;;
56381;SDS011;50261;51.150;4.470;2023-06-26T09:51:38;5.72;;;1.20;;
56381;SDS011;50261;51.150;4.470;2023-06-26T09:54:04;3.25;;;0.80;;
56381;SDS011;50261;51.150;4.470;2023-06-26T09:56:30;4.25;;;0.90;;
56381;SDS011;50261;51.150;4.470;2023-06-26T09:58:56;4.22;;;1.13;;
56381;SDS011;50261;51.150;4.470;2023-06-26T10:01:23;4.00;;;0.90;;
56381;SDS011;50261;51.150;4.470;2023-06-26T10:03:48;4.07;;;1.25;;
56381;SDS011;50261;51.150;4.470;2023-06-26T10:06:13;5.35;;;1.08;;
56381;SDS011;50261;51.150;4.470;2023-06-26T10:08:40;2.35;;;0.80;;
56381;SDS011;50261;51.150;4.470;2023-06-26T10:11:07;4.75;;;1.17;;
56381;SDS011;50261;51.150;4.470;2023-06-26T10:13:37;5.65;;;1.92;;
56381;SDS011;50261;51.150;4.470;2023-06-26T10:16:04;4.10;;;0.90;;
56381;SDS011;50261;51.150;4.470;2023-06-26T10:18:32;2.72;;;0.88;;
56381;SDS011;50261;51.150;4.470;2023-06-26T10:20:58;3.30;;;0.60;;
56381;SDS011;50261;51.150;4.470;2023-06-26T10:23:25;2.50;;;0.93;;
56381;SDS011;50261;51.150;4.470;2023-06-26T10:25:52;5.18;;;1.38;;
56381;SDS011;50261;51.150;4.470;2023-06-26T10:28:19;3.42;;;1.42;;
56381;SDS011;50261;51.150;4.470;2023-06-26T10:30:45;3.67;;;1.10;;
56381;SDS011;50261;51.150;4.470;2023-06-26T10:33:12;3.40;;;0.98;;
56381;SDS011;50261;51.150;4.470;2023-06-26T10:35:42;3.22;;;1.00;;
56381;SDS011;50261;51.150;4.470;2023-06-26T10:38:07;1.75;;;0.88;;
56381;SDS011;50261;51.150;4.470;2023-06-26T10:40:46;5.28;;;0.77;;
56381;SDS011;50261;51.150;4.470;2023-06-26T10:43:13;3.72;;;0.60;;
56381;SDS011;50261;51.150;4.470;2023-06-26T10:45:43;11.48;;;1.60;;
56381;SDS011;50261;51.150;4.470;2023-06-26T10:48:08;4.35;;;0.93;;
56381;SDS011;50261;51.150;4.470;2023-06-26T10:50:34;3.22;;;1.00;;
56381;SDS011;50261;51.150;4.470;2023-06-26T10:55:43;9.75;;;2.72;;
56381;SDS011;50261;51.150;4.470;2023-06-26T10:58:51;3.50;;;0.80;;
56381;SDS011;50261;51.150;4.470;2023-06-26T11:06:15;2.13;;;0.77;;
56381;SDS011;50261;51.150;4.470;2023-06-26T11:11:16;3.70;;;1.00;;
56381;SDS011;50261;51.150;4.470;2023-06-26T11:13:41;3.13;;;1.23;;
56381;SDS011;50261;51.150;4.470;2023-06-26T11:16:07;4.22;;;0.90;;
56381;SDS011;50261;51.150;4.470;2023-06-26T11:18:33;2.95;;;0.60;;
56381;SDS011;50261;51.150;4.470;2023-06-26T11:21:11;2.72;;;0.90;;
56381;SDS011;50261;51.150;4.470;2023-06-26T11:23:39;1.73;;;0.63;;
56381;SDS011;50261;51.150;4.470;2023-06-26T11:26:17;3.97;;;1.10;;
56381;SDS011;50261;51.150;4.470;2023-06-26T11:28:47;2.60;;;0.90;;
56381;SDS011;50261;51.150;4.470;2023-06-26T11:31:28;4.28;;;0.95;;
56381;SDS011;50261;51.150;4.470;2023-06-26T11:33:58;3.30;;;0.50;;
56381;SDS011;50261;51.150;4.470;2023-06-26T11:36:24;2.83;;;0.82;;
56381;SDS011;50261;51.150;4.470;2023-06-26T11:38:57;4.75;;;1.10;;
56381;SDS011;50261;51.150;4.470;2023-06-26T11:41:28;2.17;;;0.60;;
56381;SDS011;50261;51.150;4.470;2023-06-26T11:43:54;2.80;;;0.80;;
56381;SDS011;50261;51.150;4.470;2023-06-26T11:46:20;4.20;;;0.90;;
56381;SDS011;50261;51.150;4.470;2023-06-26T11:48:46;6.90;;;0.95;;
56381;SDS011;50261;51.150;4.470;2023-06-26T11:51:15;6.70;;;0.85;;
56381;SDS011;50261;51.150;4.470;2023-06-26T11:53:41;2.60;;;0.80;;
56381;SDS011;50261;51.150;4.470;2023-06-26T11:56:10;3.17;;;0.95;;
56381;SDS011;50261;51.150;4.470;2023-06-26T11:58:36;1.85;;;0.90;;
56381;SDS011;50261;51.150;4.470;2023-06-26T12:01:02;8.13;;;1.05;;
56381;SDS011;50261;51.150;4.470;2023-06-26T12:03:28;3.20;;;1.02;;
56381;SDS011;50261;51.150;4.470;2023-06-26T12:05:54;1.95;;;0.75;;
56381;SDS011;50261;51.150;4.470;2023-06-26T12:08:19;2.83;;;1.00;;
56381;SDS011;50261;51.150;4.470;2023-06-26T12:10:45;5.78;;;1.00;;
56381;SDS011;50261;51.150;4.470;2023-06-26T12:13:10;2.15;;;0.80;;
56381;SDS011;50261;51.150;4.470;2023-06-26T12:15:36;3.05;;;0.90;;
56381;SDS011;50261;51.150;4.470;2023-06-26T12:18:07;2.35;;;0.93;;
56381;SDS011;50261;51.150;4.470;2023-06-26T12:20:32;3.40;;;0.75;;
56381;SDS011;50261;51.150;4.470;2023-06-26T12:22:58;5.00;;;0.88;;
56381;SDS011;50261;51.150;4.470;2023-06-26T12:25:23;3.10;;;0.82;;
56381;SDS011;50261;51.150;4.470;2023-06-26T12:27:49;2.55;;;1.02;;
56381;SDS011;50261;51.150;4.470;2023-06-26T12:30:15;5.13;;;0.90;;
56381;SDS011;50261;51.150;4.470;2023-06-26T12:32:43;4.13;;;1.27;;
56381;SDS011;50261;51.150;4.470;2023-06-26T12:35:09;3.22;;;0.95;;
56381;SDS011;50261;51.150;4.470;2023-06-26T12:37:37;2.85;;;0.85;;
56381;SDS011;50261;51.150;4.470;2023-06-26T12:40:15;3.33;;;0.88;;
56381;SDS011;50261;51.150;4.470;2023-06-26T12:42:41;5.13;;;0.82;;
56381;SDS011;50261;51.150;4.470;2023-06-26T12:45:13;3.05;;;0.85;;
56381;SDS011;50261;51.150;4.470;2023-06-26T12:47:39;4.85;;;0.95;;
56381;SDS011;50261;51.150;4.470;2023-06-26T12:50:06;2.60;;;0.93;;
56381;SDS011;50261;51.150;4.470;2023-06-26T12:52:32;4.88;;;0.85;;
56381;SDS011;50261;51.150;4.470;2023-06-26T12:54:57;3.00;;;1.05;;
56381;SDS011;50261;51.150;4.470;2023-06-26T12:57:23;2.25;;;0.88;;
56381;SDS011;50261;51.150;4.470;2023-06-26T12:59:48;3.50;;;1.00;;
56381;SDS011;50261;51.150;4.470;2023-06-26T13:02:14;3.95;;;0.70;;
56381;SDS011;50261;51.150;4.470;2023-06-26T13:04:39;1.98;;;0.70;;
56381;SDS011;50261;51.150;4.470;2023-06-26T13:07:06;3.50;;;1.20;;
56381;SDS011;50261;51.150;4.470;2023-06-26T13:09:31;3.38;;;1.05;;
56381;SDS011;50261;51.150;4.470;2023-06-26T13:11:58;3.58;;;0.93;;
56381;SDS011;50261;51.150;4.470;2023-06-26T13:14:23;3.58;;;0.80;;
56381;SDS011;50261;51.150;4.470;2023-06-26T13:16:49;2.92;;;1.08;;
56381;SDS011;50261;51.150;4.470;2023-06-26T13:19:14;4.85;;;0.85;;
56381;SDS011;50261;51.150;4.470;2023-06-26T13:21:40;2.88;;;0.60;;
56381;SDS011;50261;51.150;4.470;2023-06-26T13:24:07;4.38;;;0.88;;
56381;SDS011;50261;51.150;4.470;2023-06-26T13:26:32;3.70;;;0.65;;
56381;SDS011;50261;51.150;4.470;2023-06-26T13:28:58;2.80;;;0.77;;
56381;SDS011;50261;51.150;4.470;2023-06-26T13:31:23;3.42;;;0.88;;
56381;SDS011;50261;51.150;4.470;2023-06-26T13:33:49;3.17;;;1.08;;
56381;SDS011;50261;51.150;4.470;2023-06-26T13:36:15;3.45;;;0.90;;
56381;SDS011;50261;51.150;4.470;2023-06-26T13:38:41;1.35;;;0.90;;
56381;SDS011;50261;51.150;4.470;2023-06-26T13:41:06;4.25;;;1.00;;
56381;SDS011;50261;51.150;4.470;2023-06-26T13:43:32;2.33;;;0.90;;
56381;SDS011;50261;51.150;4.470;2023-06-26T13:45:57;5.65;;;1.00;;
56381;SDS011;50261;51.150;4.470;2023-06-26T13:48:22;3.95;;;0.73;;
56381;SDS011;50261;51.150;4.470;2023-06-26T13:50:51;3.92;;;0.85;;
56381;SDS011;50261;51.150;4.470;2023-06-26T13:53:16;2.75;;;0.90;;
56381;SDS011;50261;51.150;4.470;2023-06-26T13:55:42;3.35;;;0.95;;
56381;SDS011;50261;51.150;4.470;2023-06-26T13:58:08;3.92;;;0.95;;
56381;SDS011;50261;51.150;4.470;2023-06-26T14:00:34;3.85;;;0.90;;
56381;SDS011;50261;51.150;4.470;2023-06-26T14:03:00;4.22;;;0.77;;
56381;SDS011;50261;51.150;4.470;2023-06-26T14:05:26;7.15;;;0.90;;
56381;SDS011;50261;51.150;4.470;2023-06-26T14:07:52;4.47;;;0.75;;
56381;SDS011;50261;51.150;4.470;2023-06-26T14:10:19;2.28;;;0.95;;
56381;SDS011;50261;51.150;4.470;2023-06-26T14:12:45;3.00;;;0.95;;
56381;SDS011;50261;51.150;4.470;2023-06-26T14:15:10;2.72;;;1.48;;
56381;SDS011;50261;51.150;4.470;2023-06-26T14:17:36;3.70;;;1.00;;
56381;SDS011;50261;51.150;4.470;2023-06-26T14:20:01;1.90;;;0.65;;
56381;SDS011;50261;51.150;4.470;2023-06-26T14:22:27;1.90;;;0.60;;
56381;SDS011;50261;51.150;4.470;2023-06-26T14:24:52;4.40;;;1.20;;
56381;SDS011;50261;51.150;4.470;2023-06-26T14:27:18;7.05;;;1.20;;
56381;SDS011;50261;51.150;4.470;2023-06-26T14:29:43;3.72;;;0.93;;
56381;SDS011;50261;51.150;4.470;2023-06-26T14:32:10;7.55;;;1.13;;
56381;SDS011;50261;51.150;4.470;2023-06-26T14:34:36;11.68;;;2.75;;
56381;SDS011;50261;51.150;4.470;2023-06-26T14:37:01;3.92;;;0.93;;
56381;SDS011;50261;51.150;4.470;2023-06-26T14:39:27;5.07;;;1.65;;
56381;SDS011;50261;51.150;4.470;2023-06-26T14:41:53;3.15;;;0.98;;
56381;SDS011;50261;51.150;4.470;2023-06-26T14:44:19;4.68;;;1.35;;
56381;SDS011;50261;51.150;4.470;2023-06-26T14:46:44;3.03;;;0.90;;
56381;SDS011;50261;51.150;4.470;2023-06-26T14:49:10;3.05;;;0.90;;
56381;SDS011;50261;51.150;4.470;2023-06-26T14:51:35;2.90;;;1.00;;
56381;SDS011;50261;51.150;4.470;2023-06-26T14:54:01;9.77;;;1.33;;
56381;SDS011;50261;51.150;4.470;2023-06-26T14:56:27;2.42;;;0.90;;
56381;SDS011;50261;51.150;4.470;2023-06-26T14:58:52;3.50;;;0.82;;
56381;SDS011;50261;51.150;4.470;2023-06-26T15:01:18;2.30;;;0.70;;